Time;durP1;ratioP1;P1;durP2;ratioP2;P2;SDS_P1;SDS_P2;PMS_P1;PMS_P2;Temp;Humidity;BMP_temperature;BMP_pressure;BME280_temperature;BME280_humidity;BME280_pressure;Samples;Min_cycle;Max_cycle;Signal;HPM_P1;HPM_P2
2022/11/27 00:00:25;;;;;;;5.60;1.20;;;5.30;99.90;;;;;;4888788;29;20033;-82
2022/11/27 00:02:51;;;;;;;4.38;1.33;;;5.20;99.90;;;;;;4876060;29;20032;-83
2022/11/27 00:05:17;;;;;;;2.95;1.02;;;5.20;99.90;;;;;;4891772;29;20080;-81
2022/11/27 00:07:43;;;;;;;5.38;1.05;;;5.20;99.90;;;;;;4906660;29;20132;-82
2022/11/27 00:10:09;;;;;;;6.25;1.63;;;5.20;99.90;;;;;;4891361;29;20481;-83
2022/11/27 00:12:35;;;;;;;4.75;1.40;;;5.20;99.90;;;;;;4903808;29;20064;-83
2022/11/27 00:15:02;;;;;;;5.13;1.00;;;5.10;99.90;;;;;;4876085;29;20041;-82
2022/11/27 00:17:28;;;;;;;4.25;1.05;;;5.10;99.90;;;;;;4877564;29;20029;-83
2022/11/27 00:19:53;;;;;;;6.43;1.52;;;5.10;99.90;;;;;;4904353;29;20029;-82
2022/11/27 00:22:19;;;;;;;10.77;2.28;;;5.10;99.90;;;;;;4874972;29;20028;-82
2022/11/27 00:24:45;;;;;;;6.38;1.30;;;5.00;99.90;;;;;;4892967;29;20040;-83
2022/11/27 00:27:10;;;;;;;4.10;1.00;;;5.00;99.90;;;;;;4887523;29;20123;-84
2022/11/27 00:29:37;;;;;;;5.30;1.45;;;4.90;99.90;;;;;;4889482;29;20020;-82
2022/11/27 00:32:05;;;;;;;3.97;1.00;;;4.90;99.90;;;;;;4900079;29;20040;-82
2022/11/27 00:34:31;;;;;;;3.40;0.95;;;4.90;99.90;;;;;;4889780;29;20041;-82
2022/11/27 00:36:56;;;;;;;4.50;1.10;;;4.90;99.90;;;;;;4891220;29;20056;-83
2022/11/27 00:39:22;;;;;;;4.65;1.40;;;4.90;99.90;;;;;;4875144;29;20021;-82
2022/11/27 00:41:47;;;;;;;6.95;1.90;;;4.90;99.90;;;;;;4891944;29;20037;-82
2022/11/27 00:44:13;;;;;;;6.47;1.30;;;4.90;99.90;;;;;;4877447;29;20040;-82
2022/11/27 00:46:40;;;;;;;5.05;1.20;;;4.90;99.90;;;;;;4887800;29;20034;-82
2022/11/27 00:49:07;;;;;;;3.03;0.95;;;4.80;99.90;;;;;;4887998;29;20040;-85
2022/11/27 00:51:33;;;;;;;6.70;1.20;;;4.80;99.90;;;;;;4872695;29;20504;-83
2022/11/27 00:53:59;;;;;;;5.55;2.00;;;4.80;99.90;;;;;;4874390;29;20033;-83
2022/11/27 00:56:28;;;;;;;6.35;1.60;;;4.80;99.90;;;;;;4874573;29;20041;-82
2022/11/27 00:58:54;;;;;;;6.50;1.85;;;4.80;99.90;;;;;;4888099;29;20036;-83
2022/11/27 01:01:27;;;;;;;5.50;1.05;;;4.80;99.90;;;;;;4903222;29;20041;-82
2022/11/27 01:03:54;;;;;;;5.03;1.33;;;4.90;99.90;;;;;;4874394;29;20112;-83
2022/11/27 01:06:20;;;;;;;6.22;1.50;;;4.90;99.90;;;;;;4891510;29;20099;-82
2022/11/27 01:08:47;;;;;;;5.60;1.55;;;4.90;99.90;;;;;;4891968;29;20536;-82
2022/11/27 01:11:16;;;;;;;5.13;1.55;;;4.90;99.90;;;;;;4889049;29;20047;-82
2022/11/27 01:13:42;;;;;;;5.13;1.25;;;4.80;99.90;;;;;;4903923;29;20031;-82
2022/11/27 01:16:13;;;;;;;5.78;1.63;;;4.80;99.90;;;;;;4890951;29;20041;-81
2022/11/27 01:18:41;;;;;;;5.32;1.98;;;4.90;99.90;;;;;;4889327;29;20031;-82
2022/11/27 01:21:08;;;;;;;7.15;1.77;;;4.90;99.90;;;;;;4886737;29;20047;-81
2022/11/27 01:23:33;;;;;;;7.13;1.83;;;4.90;99.90;;;;;;4889074;29;20025;-82
2022/11/27 01:26:01;;;;;;;5.90;1.52;;;4.90;99.90;;;;;;4887647;29;20307;-83
2022/11/27 01:28:27;;;;;;;5.43;1.40;;;4.90;99.90;;;;;;4874896;29;20028;-82
2022/11/27 01:30:53;;;;;;;4.80;1.10;;;4.90;99.90;;;;;;4892839;29;20096;-83
2022/11/27 01:33:19;;;;;;;7.85;1.40;;;4.90;99.90;;;;;;4895798;29;20024;-82
2022/11/27 01:35:56;;;;;;;8.20;1.63;;;5.00;99.90;;;;;;4876461;29;20480;-82
2022/11/27 01:38:23;;;;;;;5.03;1.58;;;4.90;99.90;;;;;;4902730;29;20029;-82
2022/11/27 01:40:55;;;;;;;8.77;1.98;;;5.00;99.90;;;;;;4902173;29;20046;-81
2022/11/27 01:43:43;;;;;;;6.53;1.40;;;5.00;99.90;;;;;;4872513;29;20033;-82
2022/11/27 01:46:31;;;;;;;9.18;1.42;;;5.00;99.90;;;;;;4890052;29;20033;-82
2022/11/27 01:49:09;;;;;;;3.40;0.98;;;5.00;99.90;;;;;;4887943;29;20020;-82
2022/11/27 01:51:47;;;;;;;4.50;1.23;;;5.00;99.90;;;;;;4874686;29;20044;-80
2022/11/27 01:54:14;;;;;;;4.88;1.48;;;5.00;99.90;;;;;;4871668;29;20033;-82
2022/11/27 01:56:42;;;;;;;5.85;1.70;;;5.00;99.90;;;;;;4891170;29;20449;-82
2022/11/27 01:59:08;;;;;;;5.53;1.45;;;5.00;99.90;;;;;;4871490;29;20029;-81
2022/11/27 02:01:33;;;;;;;5.45;1.15;;;5.00;99.90;;;;;;4888672;29;20040;-83
2022/11/27 02:04:00;;;;;;;6.28;1.48;;;4.90;99.90;;;;;;4903008;29;20112;-82
2022/11/27 02:06:27;;;;;;;3.65;1.33;;;4.90;99.90;;;;;;4903250;29;20045;-83
2022/11/27 02:08:54;;;;;;;3.55;1.13;;;4.90;99.90;;;;;;4876096;29;20032;-83
2022/11/27 02:11:45;;;;;;;5.15;1.10;;;4.90;99.90;;;;;;4903808;29;20032;-82
2022/11/27 02:14:44;;;;;;;6.63;2.05;;;4.90;99.90;;;;;;4886375;29;20445;-82
2022/11/27 02:17:44;;;;;;;5.93;1.38;;;4.80;99.90;;;;;;4887326;29;20077;-81
2022/11/27 02:20:41;;;;;;;6.18;1.52;;;4.80;99.90;;;;;;4865884;29;20397;-84
2022/11/27 02:23:12;;;;;;;4.53;1.95;;;4.80;99.90;;;;;;4888198;29;20033;-82
2022/11/27 02:25:38;;;;;;;5.50;1.20;;;4.80;99.90;;;;;;4902213;29;20033;-82
2022/11/27 02:28:22;;;;;;;6.65;1.20;;;4.80;99.90;;;;;;4889989;29;20028;-83
2022/11/27 02:30:57;;;;;;;4.50;0.93;;;4.80;99.90;;;;;;4891792;29;20107;-84
2022/11/27 02:33:23;;;;;;;5.15;1.20;;;4.80;99.90;;;;;;4892016;29;20067;-81
2022/11/27 02:36:08;;;;;;;7.05;1.25;;;4.80;99.90;;;;;;4873286;29;20515;-81
2022/11/27 02:38:39;;;;;;;6.43;1.45;;;4.90;99.90;;;;;;4890849;29;20115;-83
2022/11/27 02:41:24;;;;;;;7.05;1.52;;;4.90;99.90;;;;;;4906059;29;20085;-82
2022/11/27 02:43:52;;;;;;;6.40;1.38;;;4.90;99.90;;;;;;4906163;29;20389;-83
2022/11/27 02:46:18;;;;;;;5.93;1.67;;;4.90;99.90;;;;;;4890980;29;20040;-84
2022/11/27 02:49:07;;;;;;;3.55;1.02;;;4.90;99.90;;;;;;4907954;29;20169;-83
2022/11/27 02:51:40;;;;;;;4.90;0.90;;;4.90;99.90;;;;;;4891897;29;20033;-84
2022/11/27 02:54:11;;;;;;;9.48;1.48;;;4.90;99.90;;;;;;4906502;29;20032;-81
2022/11/27 02:56:40;;;;;;;8.85;1.60;;;4.90;99.90;;;;;;4903318;29;20049;-83
2022/11/27 02:59:12;;;;;;;5.10;0.90;;;5.00;99.90;;;;;;4875301;29;20153;-82
2022/11/27 03:01:43;;;;;;;7.05;1.08;;;4.90;99.90;;;;;;4891383;29;20547;-83
2022/11/27 03:04:15;;;;;;;5.82;1.45;;;5.00;99.90;;;;;;4891308;29;20473;-83
2022/11/27 03:06:46;;;;;;;6.35;1.10;;;5.00;99.90;;;;;;4877155;29;20060;-82
2022/11/27 03:09:17;;;;;;;5.75;0.80;;;5.00;99.90;;;;;;4890282;29;20028;-84
2022/11/27 03:11:44;;;;;;;6.07;0.88;;;5.10;99.90;;;;;;4874926;29;20037;-82
2022/11/27 03:14:12;;;;;;;6.18;1.60;;;5.00;99.90;;;;;;4893843;29;20035;-82
2022/11/27 03:16:57;;;;;;;6.88;1.50;;;5.10;99.90;;;;;;4870942;29;20064;-85
2022/11/27 03:19:38;;;;;;;6.90;1.42;;;5.10;99.90;;;;;;4903453;29;20060;-81
2022/11/27 03:22:04;;;;;;;4.65;0.90;;;5.10;99.90;;;;;;4905614;29;20120;-82
2022/11/27 03:24:33;;;;;;;6.93;1.13;;;5.10;99.90;;;;;;4889592;29;20095;-83
2022/11/27 03:26:59;;;;;;;5.20;0.90;;;5.10;99.90;;;;;;4874011;29;20029;-82
2022/11/27 03:29:28;;;;;;;8.60;1.00;;;5.10;99.90;;;;;;4892688;29;20552;-82
2022/11/27 03:31:55;;;;;;;4.57;0.95;;;5.10;99.90;;;;;;4891402;29;20183;-83
2022/11/27 03:34:21;;;;;;;4.07;0.90;;;5.10;99.90;;;;;;4888628;29;20386;-82
2022/11/27 03:36:47;;;;;;;4.05;0.98;;;5.10;99.90;;;;;;4893290;29;20052;-82
2022/11/27 03:39:12;;;;;;;5.60;1.25;;;5.10;99.90;;;;;;4875934;29;20036;-83
2022/11/27 03:41:50;;;;;;;7.75;1.20;;;5.10;99.90;;;;;;4890726;29;20039;-82
2022/11/27 03:44:25;;;;;;;4.90;0.98;;;5.10;99.90;;;;;;4888572;29;20028;-82
2022/11/27 03:47:30;;;;;;;5.05;0.80;;;5.10;99.90;;;;;;4890302;29;20040;-82
2022/11/27 03:50:31;;;;;;;5.20;0.90;;;5.10;99.90;;;;;;4888412;29;20088;-82
2022/11/27 03:53:09;;;;;;;4.03;0.90;;;5.20;99.90;;;;;;4875778;29;20481;-83
2022/11/27 03:55:41;;;;;;;8.80;1.50;;;5.20;99.90;;;;;;4902584;29;20153;-82
2022/11/27 03:58:33;;;;;;;5.20;1.00;;;5.20;99.90;;;;;;4887603;29;20044;-82
2022/11/27 04:01:00;;;;;;;5.35;0.98;;;5.20;99.90;;;;;;4874552;29;20043;-82
2022/11/27 04:03:28;;;;;;;5.80;0.98;;;5.20;99.90;;;;;;4905391;29;20504;-82
2022/11/27 04:05:55;;;;;;;3.38;0.90;;;5.20;99.90;;;;;;4901712;29;20116;-82
2022/11/27 04:08:21;;;;;;;4.03;0.82;;;5.20;99.90;;;;;;4888376;29;20036;-82
2022/11/27 04:10:47;;;;;;;5.90;0.88;;;5.30;99.90;;;;;;4893457;29;20047;-83
2022/11/27 04:13:12;;;;;;;4.78;0.85;;;5.20;99.90;;;;;;4889279;29;20036;-83
2022/11/27 04:15:38;;;;;;;4.47;1.00;;;5.20;99.90;;;;;;4888371;29;20394;-82
2022/11/27 04:18:04;;;;;;;4.50;1.00;;;5.20;99.90;;;;;;4890648;29;20477;-82
2022/11/27 04:20:30;;;;;;;4.88;1.17;;;5.20;99.90;;;;;;4889153;29;20535;-83
2022/11/27 04:22:56;;;;;;;3.08;0.95;;;5.30;99.90;;;;;;4904599;29;20462;-82
2022/11/27 04:25:22;;;;;;;4.78;1.25;;;5.30;99.90;;;;;;4891872;29;20029;-83
2022/11/27 04:27:48;;;;;;;6.35;1.33;;;5.30;99.90;;;;;;4904447;29;20044;-82
2022/11/27 04:30:14;;;;;;;2.88;0.90;;;5.30;99.90;;;;;;4872521;29;20040;-83
2022/11/27 04:32:40;;;;;;;7.07;1.08;;;5.30;99.90;;;;;;4891686;29;20043;-83
2022/11/27 04:35:06;;;;;;;3.03;1.00;;;5.20;99.90;;;;;;4889665;29;20108;-82
2022/11/27 04:37:31;;;;;;;7.63;1.30;;;5.30;99.90;;;;;;4891662;29;20033;-84
2022/11/27 04:39:57;;;;;;;7.00;1.20;;;5.30;99.90;;;;;;4890217;29;20028;-82
2022/11/27 04:42:23;;;;;;;5.15;1.58;;;5.30;99.90;;;;;;4891101;29;20089;-81
2022/11/27 04:44:49;;;;;;;9.00;1.42;;;5.20;99.90;;;;;;4874019;29;20114;-82
2022/11/27 04:47:15;;;;;;;3.90;1.20;;;5.20;99.90;;;;;;4902492;29;20119;-82
2022/11/27 04:49:40;;;;;;;6.57;1.80;;;5.20;99.90;;;;;;4876359;29;22247;-83
2022/11/27 04:52:06;;;;;;;6.25;1.65;;;5.20;99.90;;;;;;4890358;29;20040;-82
2022/11/27 04:54:32;;;;;;;6.25;1.27;;;5.20;99.90;;;;;;4890923;29;20031;-82
2022/11/27 04:56:58;;;;;;;4.07;1.10;;;5.20;99.90;;;;;;4884445;29;20517;-83
2022/11/27 04:59:23;;;;;;;5.45;1.40;;;5.20;99.90;;;;;;4873830;29;20032;-81
2022/11/27 05:01:49;;;;;;;5.18;1.63;;;5.20;99.90;;;;;;4890554;29;20107;-83
2022/11/27 05:04:15;;;;;;;7.22;1.98;;;5.30;99.90;;;;;;4887079;29;20592;-83
2022/11/27 05:06:41;;;;;;;6.28;1.58;;;5.30;99.90;;;;;;4902651;29;20140;-82
2022/11/27 05:09:06;;;;;;;5.47;1.70;;;5.30;99.90;;;;;;4887440;29;20123;-83
2022/11/27 05:11:33;;;;;;;3.47;1.02;;;5.30;99.90;;;;;;4888905;29;20029;-83
2022/11/27 05:14:16;;;;;;;5.50;1.20;;;5.20;99.90;;;;;;4892609;29;20049;-82
2022/11/27 05:16:49;;;;;;;3.78;1.10;;;5.20;99.90;;;;;;4888338;29;20040;-83
2022/11/27 05:19:17;;;;;;;6.38;1.80;;;5.30;99.90;;;;;;4888705;29;20035;-81
2022/11/27 05:21:43;;;;;;;5.20;1.08;;;5.30;99.90;;;;;;4902000;29;20033;-82
2022/11/27 05:24:10;;;;;;;4.55;1.27;;;5.20;99.90;;;;;;4896047;29;20103;-83
2022/11/27 05:26:38;;;;;;;5.85;1.95;;;5.30;99.90;;;;;;4870760;29;20025;-82
2022/11/27 05:29:05;;;;;;;6.43;2.33;;;5.30;99.90;;;;;;4891117;29;20033;-82
2022/11/27 05:31:31;;;;;;;5.15;1.73;;;5.30;99.90;;;;;;4888762;29;20036;-83
2022/11/27 05:33:57;;;;;;;5.43;1.30;;;5.20;99.90;;;;;;4886026;29;20037;-82
2022/11/27 05:36:22;;;;;;;3.88;1.20;;;5.30;99.90;;;;;;4874435;29;20048;-82
2022/11/27 05:38:48;;;;;;;5.20;1.65;;;5.30;99.90;;;;;;4900514;29;20080;-83
2022/11/27 05:41:14;;;;;;;9.50;2.22;;;5.20;99.90;;;;;;4888450;29;20028;-85
2022/11/27 05:43:40;;;;;;;5.75;1.88;;;5.30;99.90;;;;;;4876291;29;20542;-83
2022/11/27 05:46:08;;;;;;;6.15;2.00;;;5.30;99.90;;;;;;4886984;29;20076;-82
2022/11/27 05:48:36;;;;;;;6.15;2.15;;;5.30;99.90;;;;;;4903644;29;20029;-83
2022/11/27 05:51:02;;;;;;;5.25;1.55;;;5.30;99.90;;;;;;4886360;29;20032;-82
2022/11/27 05:53:28;;;;;;;5.28;1.55;;;5.30;99.90;;;;;;4886893;29;20036;-82
2022/11/27 05:56:00;;;;;;;5.85;2.25;;;5.30;99.90;;;;;;4890538;29;20049;-82
2022/11/27 05:58:26;;;;;;;8.02;2.83;;;5.30;99.90;;;;;;4885593;29;20078;-82
2022/11/27 06:00:52;;;;;;;8.02;2.30;;;5.20;99.90;;;;;;4887197;29;20024;-82
2022/11/27 06:03:17;;;;;;;5.57;2.08;;;5.30;99.90;;;;;;4893594;29;20493;-82
2022/11/27 06:05:43;;;;;;;5.93;2.58;;;5.30;99.90;;;;;;4891719;29;20421;-82
2022/11/27 06:08:09;;;;;;;5.78;2.13;;;5.30;99.90;;;;;;4890373;29;20037;-82
2022/11/27 06:10:36;;;;;;;7.57;2.25;;;5.30;99.90;;;;;;4894644;29;20032;-83
2022/11/27 06:13:02;;;;;;;4.55;1.90;;;5.30;99.90;;;;;;4878197;29;20555;-83
2022/11/27 06:15:27;;;;;;;7.97;2.13;;;5.30;99.90;;;;;;4907241;29;20040;-82
2022/11/27 06:17:53;;;;;;;5.70;2.47;;;5.30;99.90;;;;;;4893474;29;20028;-83
2022/11/27 06:20:19;;;;;;;7.97;3.05;;;5.30;99.90;;;;;;4891548;29;20444;-81
2022/11/27 06:22:45;;;;;;;5.75;3.00;;;5.30;99.90;;;;;;4906814;29;20037;-83
2022/11/27 06:25:10;;;;;;;7.75;2.53;;;5.30;99.90;;;;;;4888787;29;20039;-83
2022/11/27 06:27:36;;;;;;;7.35;2.60;;;5.30;99.90;;;;;;4879441;29;20048;-82
2022/11/27 06:30:03;;;;;;;7.25;2.22;;;5.30;99.90;;;;;;4891021;29;20024;-83
2022/11/27 06:32:30;;;;;;;4.93;2.08;;;5.30;99.90;;;;;;4890328;29;20039;-82
2022/11/27 06:34:56;;;;;;;7.63;1.98;;;5.30;99.90;;;;;;4875450;29;20052;-82
2022/11/27 06:37:23;;;;;;;6.25;2.00;;;5.30;99.90;;;;;;4898802;29;20047;-83
2022/11/27 06:39:49;;;;;;;5.72;2.28;;;5.30;99.90;;;;;;4889489;29;20036;-84
2022/11/27 06:42:16;;;;;;;10.65;2.70;;;5.30;99.90;;;;;;4891039;29;20521;-83
2022/11/27 06:44:42;;;;;;;10.55;3.05;;;5.40;99.90;;;;;;4892199;29;20021;-83
2022/11/27 06:47:08;;;;;;;5.72;2.40;;;5.40;99.90;;;;;;4876775;29;20036;-83
2022/11/27 06:49:34;;;;;;;9.02;2.80;;;5.30;99.90;;;;;;4878160;29;20039;-81
2022/11/27 06:52:00;;;;;;;8.55;2.63;;;5.40;99.90;;;;;;4877362;29;20534;-82
2022/11/27 06:54:26;;;;;;;7.28;2.80;;;5.40;99.90;;;;;;4878225;29;20024;-81
2022/11/27 06:56:52;;;;;;;7.38;2.75;;;5.40;99.90;;;;;;4890616;29;20041;-82
2022/11/27 06:59:18;;;;;;;6.57;2.88;;;5.40;99.90;;;;;;4887330;29;20028;-81
2022/11/27 07:01:45;;;;;;;10.60;3.13;;;5.40;99.90;;;;;;4891392;29;20048;-82
2022/11/27 07:04:13;;;;;;;6.88;2.63;;;5.40;99.90;;;;;;4874648;29;20054;-82
2022/11/27 07:06:39;;;;;;;5.53;2.25;;;5.40;99.90;;;;;;4891654;29;20048;-81
2022/11/27 07:09:05;;;;;;;6.88;2.78;;;5.40;99.90;;;;;;4890531;29;20478;-82
2022/11/27 07:11:33;;;;;;;9.15;3.22;;;5.40;99.90;;;;;;4889665;29;20481;-82
2022/11/27 07:14:02;;;;;;;5.75;2.67;;;5.40;99.90;;;;;;4877970;29;20032;-81
2022/11/27 07:16:31;;;;;;;13.38;4.25;;;5.50;99.90;;;;;;4875939;29;20077;-82
2022/11/27 07:18:59;;;;;;;9.20;3.75;;;5.50;99.90;;;;;;4870732;29;20426;-81
2022/11/27 07:21:26;;;;;;;11.60;4.05;;;5.40;99.90;;;;;;4891898;29;20378;-85
2022/11/27 07:23:52;;;;;;;10.73;4.00;;;5.50;99.90;;;;;;4887991;29;20439;-82
2022/11/27 07:26:21;;;;;;;9.82;3.88;;;5.40;99.90;;;;;;4892436;29;20077;-81
2022/11/27 07:28:47;;;;;;;12.02;4.68;;;5.50;99.90;;;;;;4875667;29;20028;-81
2022/11/27 07:31:16;;;;;;;8.30;3.88;;;5.50;99.90;;;;;;4891658;29;20123;-82
2022/11/27 07:33:42;;;;;;;9.13;4.03;;;5.50;99.90;;;;;;4893105;29;20033;-81
2022/11/27 07:36:13;;;;;;;8.57;3.55;;;5.50;99.90;;;;;;4903498;29;20049;-82
2022/11/27 07:38:39;;;;;;;9.10;3.20;;;5.50;99.90;;;;;;4887246;29;20025;-82
2022/11/27 07:41:05;;;;;;;9.35;3.20;;;5.50;99.90;;;;;;4891764;29;20050;-81
2022/11/27 07:43:32;;;;;;;7.63;2.90;;;5.50;99.90;;;;;;4872370;29;20044;-83
2022/11/27 07:46:02;;;;;;;6.93;2.70;;;5.50;99.90;;;;;;4888854;29;20573;-84
2022/11/27 07:48:29;;;;;;;8.23;2.97;;;5.50;99.90;;;;;;4883872;29;20037;-83
2022/11/27 07:50:58;;;;;;;6.30;2.40;;;5.60;99.90;;;;;;4882610;29;20120;-83
2022/11/27 07:53:24;;;;;;;7.53;2.60;;;5.60;99.90;;;;;;4903364;29;20088;-84
2022/11/27 07:55:49;;;;;;;6.18;2.72;;;5.60;99.90;;;;;;4882875;29;20312;-84
2022/11/27 07:58:15;;;;;;;7.90;3.15;;;5.60;99.90;;;;;;4871238;29;20492;-84
2022/11/27 08:00:41;;;;;;;6.57;2.38;;;5.60;99.90;;;;;;4874465;29;20506;-85
2022/11/27 08:03:08;;;;;;;6.30;3.03;;;5.60;99.90;;;;;;4871476;29;20085;-84
2022/11/27 08:05:35;;;;;;;9.00;2.95;;;5.60;99.90;;;;;;4877710;29;20032;-83
2022/11/27 08:08:03;;;;;;;9.43;4.07;;;5.60;99.90;;;;;;4887181;29;20048;-84
2022/11/27 08:10:30;;;;;;;7.25;3.65;;;5.50;99.90;;;;;;4892018;29;20029;-84
2022/11/27 08:12:58;;;;;;;8.20;3.75;;;5.60;99.90;;;;;;4900460;29;20519;-84
2022/11/27 08:15:25;;;;;;;10.23;3.42;;;5.50;99.90;;;;;;4874260;29;20075;-84
2022/11/27 08:17:50;;;;;;;6.47;2.38;;;5.60;99.90;;;;;;4873222;29;20055;-83
2022/11/27 08:20:18;;;;;;;7.07;3.45;;;5.50;99.90;;;;;;4905901;29;20029;-84
2022/11/27 08:22:44;;;;;;;6.93;2.20;;;5.60;99.90;;;;;;4891114;29;20047;-83
2022/11/27 08:25:10;;;;;;;7.22;2.78;;;5.60;99.90;;;;;;4886999;29;20178;-84
2022/11/27 08:27:35;;;;;;;9.55;3.17;;;5.60;99.90;;;;;;4876628;29;20039;-84
2022/11/27 08:30:02;;;;;;;8.68;3.00;;;5.60;99.90;;;;;;4875659;29;20442;-83
2022/11/27 08:32:28;;;;;;;6.10;2.33;;;5.60;99.90;;;;;;4888987;29;20025;-83
2022/11/27 08:34:53;;;;;;;9.10;4.22;;;5.60;99.90;;;;;;4884469;29;20445;-83
2022/11/27 08:37:20;;;;;;;6.65;3.35;;;5.60;99.90;;;;;;4875836;29;20055;-83
2022/11/27 08:39:46;;;;;;;11.43;3.55;;;5.60;99.90;;;;;;4886819;29;20068;-84
2022/11/27 08:42:12;;;;;;;6.30;2.90;;;5.60;99.90;;;;;;4887279;29;20056;-82
2022/11/27 08:44:38;;;;;;;8.38;2.97;;;5.60;99.90;;;;;;4886996;29;20031;-84
2022/11/27 08:47:03;;;;;;;7.20;3.08;;;5.60;99.90;;;;;;4875351;29;20127;-84
2022/11/27 08:49:29;;;;;;;8.18;2.83;;;5.60;99.90;;;;;;4899072;29;20111;-83
2022/11/27 08:51:55;;;;;;;4.68;1.55;;;5.70;99.90;;;;;;4875171;29;20052;-85
2022/11/27 08:54:20;;;;;;;5.47;2.10;;;5.60;99.90;;;;;;4887255;29;20119;-84
2022/11/27 08:56:46;;;;;;;9.27;3.22;;;5.60;99.90;;;;;;4870692;29;20037;-84
2022/11/27 08:59:12;;;;;;;6.50;2.58;;;5.60;99.90;;;;;;4891818;29;20024;-83
2022/11/27 09:01:37;;;;;;;12.32;3.95;;;5.60;99.90;;;;;;4860773;29;20052;-84
2022/11/27 09:04:04;;;;;;;9.20;2.55;;;5.60;99.90;;;;;;4888947;29;20100;-84
2022/11/27 09:06:33;;;;;;;8.00;3.35;;;5.60;99.90;;;;;;4889766;29;20484;-85
2022/11/27 09:09:00;;;;;;;9.38;3.90;;;5.60;99.90;;;;;;4902546;29;20032;-84
2022/11/27 09:11:30;;;;;;;7.78;3.63;;;5.60;99.90;;;;;;4904678;29;20032;-83
2022/11/27 09:13:58;;;;;;;9.32;3.58;;;5.60;99.90;;;;;;4870026;29;20061;-84
2022/11/27 09:16:25;;;;;;;8.75;4.40;;;5.60;99.90;;;;;;4889727;29;20099;-84
2022/11/27 09:18:53;;;;;;;8.75;3.25;;;5.60;99.90;;;;;;4888421;29;20429;-84
2022/11/27 09:21:21;;;;;;;7.10;3.55;;;5.60;99.90;;;;;;4890901;29;20433;-82
2022/11/27 09:23:47;;;;;;;8.20;3.15;;;5.60;99.90;;;;;;4890033;29;20040;-85
2022/11/27 09:26:18;;;;;;;7.53;2.72;;;5.60;99.90;;;;;;4890991;29;20051;-86
2022/11/27 09:28:46;;;;;;;5.75;2.38;;;5.60;99.90;;;;;;4873219;29;20071;-87
2022/11/27 09:31:15;;;;;;;9.27;3.33;;;5.60;99.90;;;;;;4860120;29;20548;-83
2022/11/27 09:33:42;;;;;;;7.28;2.67;;;5.70;99.90;;;;;;4891973;29;20127;-84
2022/11/27 09:36:09;;;;;;;5.38;2.42;;;5.70;99.90;;;;;;4905078;29;20037;-84
2022/11/27 09:38:35;;;;;;;4.43;2.17;;;5.70;99.90;;;;;;4889970;29;20021;-85
2022/11/27 09:41:27;;;;;;;4.82;2.30;;;5.60;99.90;;;;;;4890251;29;20037;-85
2022/11/27 09:43:58;;;;;;;3.72;1.65;;;5.70;99.90;;;;;;4888754;29;20033;-85
2022/11/27 09:46:34;;;;;;;3.42;1.60;;;5.70;99.90;;;;;;4886083;29;20064;-84
2022/11/27 09:49:06;;;;;;;4.47;2.42;;;5.70;99.90;;;;;;4886549;29;20028;-84
2022/11/27 09:51:47;;;;;;;7.53;2.35;;;5.70;99.90;;;;;;4902070;29;20116;-84
2022/11/27 09:54:41;;;;;;;5.10;1.95;;;5.70;99.90;;;;;;4869457;29;20392;-85
2022/11/27 09:57:15;;;;;;;5.70;2.50;;;5.70;99.90;;;;;;4884684;29;20087;-83
2022/11/27 09:59:49;;;;;;;5.68;2.10;;;5.80;99.90;;;;;;4872438;29;20092;-83
2022/11/27 10:02:30;;;;;;;4.65;2.00;;;5.80;99.90;;;;;;4887786;29;20690;-82
2022/11/27 10:04:59;;;;;;;5.40;2.75;;;5.80;99.90;;;;;;4884028;29;20397;-82
2022/11/27 10:07:46;;;;;;;5.85;1.88;;;5.80;99.90;;;;;;4867844;29;20497;-82
2022/11/27 10:10:24;;;;;;;5.82;1.95;;;5.80;99.90;;;;;;4863597;29;20058;-83
2022/11/27 10:13:04;;;;;;;6.00;1.90;;;5.80;99.90;;;;;;4883017;29;20040;-80
2022/11/27 10:15:44;;;;;;;6.13;1.65;;;5.90;99.90;;;;;;4896588;29;20477;-81
2022/11/27 10:18:37;;;;;;;4.85;1.63;;;5.90;99.90;;;;;;4899039;29;20040;-81
2022/11/27 10:21:37;;;;;;;5.70;2.45;;;6.00;99.90;;;;;;4885134;29;20032;-82
2022/11/27 10:24:16;;;;;;;4.20;1.55;;;6.00;99.90;;;;;;4883274;29;20041;-83
2022/11/27 10:26:47;;;;;;;5.13;1.92;;;6.00;99.90;;;;;;4866403;29;20044;-81
2022/11/27 10:29:37;;;;;;;4.38;1.90;;;6.00;99.90;;;;;;4886921;29;20698;-83
2022/11/27 10:32:14;;;;;;;4.30;2.30;;;6.10;99.90;;;;;;4889926;29;20040;-82
2022/11/27 10:34:53;;;;;;;5.03;1.48;;;6.10;99.90;;;;;;4884903;29;20025;-81
2022/11/27 10:37:44;;;;;;;4.43;1.92;;;6.10;99.90;;;;;;4884639;29;20084;-83
2022/11/27 10:40:11;;;;;;;7.03;2.83;;;6.10;99.90;;;;;;4884776;29;20033;-81
2022/11/27 10:42:47;;;;;;;7.10;2.95;;;6.10;99.90;;;;;;4882880;29;20035;-81
2022/11/27 10:45:43;;;;;;;8.88;2.80;;;6.20;99.90;;;;;;4865848;29;20025;-81
2022/11/27 10:48:11;;;;;;;5.25;2.72;;;6.20;99.90;;;;;;4866519;29;20442;-80
2022/11/27 10:50:37;;;;;;;3.97;1.88;;;6.20;99.90;;;;;;4879991;29;20409;-81
2022/11/27 10:53:09;;;;;;;5.20;2.30;;;6.20;99.90;;;;;;4898822;29;20035;-82
2022/11/27 10:56:03;;;;;;;3.83;1.50;;;6.20;99.90;;;;;;4874190;29;20032;-82
2022/11/27 10:58:35;;;;;;;3.10;1.10;;;6.30;99.90;;;;;;4868186;29;20035;-81
2022/11/27 11:01:12;;;;;;;3.78;1.55;;;6.30;99.90;;;;;;4884141;29;20069;-83
2022/11/27 11:03:38;;;;;;;3.95;1.75;;;6.30;99.90;;;;;;4881922;29;20405;-81
2022/11/27 11:06:21;;;;;;;4.38;1.55;;;6.40;99.90;;;;;;4883478;29;20032;-82
2022/11/27 11:08:47;;;;;;;4.72;2.10;;;6.40;99.90;;;;;;4887230;29;20047;-81
2022/11/27 11:11:24;;;;;;;3.08;1.45;;;6.40;99.90;;;;;;4866353;29;20429;-84
2022/11/27 11:13:51;;;;;;;4.45;1.75;;;6.40;99.90;;;;;;4884137;29;20112;-81
2022/11/27 11:16:22;;;;;;;3.88;1.70;;;6.40;99.90;;;;;;4899434;29;20188;-83
2022/11/27 11:18:50;;;;;;;3.95;1.52;;;6.40;99.90;;;;;;4870578;29;20049;-82
2022/11/27 11:21:37;;;;;;;3.22;1.05;;;6.40;99.90;;;;;;4872837;29;20082;-84
2022/11/27 11:24:06;;;;;;;3.60;1.42;;;6.40;99.90;;;;;;4873765;29;20039;-83
2022/11/27 11:26:38;;;;;;;3.10;1.23;;;6.50;99.90;;;;;;4883759;29;20067;-85
2022/11/27 11:29:16;;;;;;;3.88;1.30;;;6.40;99.90;;;;;;4871773;29;20396;-82
2022/11/27 11:31:43;;;;;;;5.30;2.15;;;6.50;99.90;;;;;;4888996;29;20397;-82
2022/11/27 11:34:29;;;;;;;4.55;1.75;;;6.50;99.90;;;;;;4873878;29;20046;-81
2022/11/27 11:37:07;;;;;;;4.25;1.52;;;6.50;99.90;;;;;;4882435;29;20068;-83
2022/11/27 11:39:43;;;;;;;4.93;1.75;;;6.60;99.90;;;;;;4882753;29;20079;-82
2022/11/27 11:42:23;;;;;;;5.00;1.75;;;6.60;99.90;;;;;;4867978;29;20060;-81
2022/11/27 11:44:54;;;;;;;4.15;1.40;;;6.60;99.90;;;;;;4879960;29;20044;-83
2022/11/27 11:47:25;;;;;;;3.20;1.50;;;6.60;99.90;;;;;;4883646;29;20107;-83
2022/11/27 11:49:54;;;;;;;3.38;1.63;;;6.60;99.90;;;;;;4898993;29;20119;-85
2022/11/27 11:52:29;;;;;;;4.78;1.75;;;6.60;99.90;;;;;;4868287;29;20028;-82
2022/11/27 11:55:41;;;;;;;3.15;1.20;;;6.60;99.90;;;;;;4883872;29;20037;-82
2022/11/27 11:58:44;;;;;;;5.20;2.25;;;6.60;99.90;;;;;;4829913;29;20204;-82
2022/11/27 12:01:26;;;;;;;3.78;1.63;;;6.60;99.90;;;;;;4828738;29;20065;-82
2022/11/27 12:03:55;;;;;;;4.28;1.83;;;6.60;99.90;;;;;;4846564;29;20042;-82
2022/11/27 12:06:42;;;;;;;3.28;0.90;;;6.70;99.90;;;;;;4828751;29;20129;-82
2022/11/27 12:09:33;;;;;;;3.08;1.52;;;6.70;99.90;;;;;;4811483;29;20087;-82
2022/11/27 12:12:23;;;;;;;5.60;2.22;;;6.70;99.90;;;;;;4809698;29;20041;-82
2022/11/27 12:15:02;;;;;;;4.45;1.45;;;6.70;99.90;;;;;;4814496;29;20038;-86
2022/11/27 12:17:44;;;;;;;6.45;2.03;;;6.80;99.90;;;;;;4810992;29;20038;-82
2022/11/27 12:20:25;;;;;;;3.65;1.00;;;6.80;99.90;;;;;;4826650;29;20049;-83
2022/11/27 12:23:18;;;;;;;3.88;1.25;;;6.90;99.90;;;;;;5045938;28;20404;-84
2022/11/27 12:26:09;;;;;;;4.18;1.17;;;7.00;99.90;;;;;;5031988;28;20168;-85
2022/11/27 12:28:36;;;;;;;3.28;1.08;;;6.90;99.90;;;;;;5038609;28;20386;-85
2022/11/27 12:31:11;;;;;;;2.80;0.90;;;7.00;99.90;;;;;;5020539;28;20501;-85
2022/11/27 12:34:05;;;;;;;4.85;1.50;;;7.00;99.90;;;;;;5032331;28;20482;-85
2022/11/27 12:37:15;;;;;;;3.55;1.23;;;7.00;99.90;;;;;;5035472;28;20040;-84
2022/11/27 12:39:59;;;;;;;4.90;2.00;;;7.00;99.90;;;;;;5019922;28;20516;-84
2022/11/27 12:42:33;;;;;;;4.90;1.70;;;7.00;99.90;;;;;;5028608;28;20037;-85
2022/11/27 12:45:44;;;;;;;4.43;1.60;;;7.10;99.90;;;;;;5033372;28;20377;-84
2022/11/27 12:48:18;;;;;;;3.55;1.42;;;7.10;99.90;;;;;;5031598;28;20052;-85
2022/11/27 12:50:52;;;;;;;3.13;1.55;;;7.00;99.90;;;;;;5037532;28;20025;-84
2022/11/27 12:53:34;;;;;;;3.55;1.70;;;7.00;99.90;;;;;;5029659;28;20462;-84
2022/11/27 12:56:34;;;;;;;4.05;1.60;;;7.00;99.90;;;;;;5036239;28;20516;-84
2022/11/27 12:59:15;;;;;;;4.45;1.10;;;7.00;99.90;;;;;;5019564;28;20048;-85
2022/11/27 13:02:14;;;;;;;3.40;1.45;;;7.00;99.90;;;;;;5019403;28;20482;-85
2022/11/27 13:04:59;;;;;;;3.40;1.23;;;6.90;99.90;;;;;;5014186;28;20037;-85
2022/11/27 13:07:44;;;;;;;3.47;1.60;;;6.90;99.90;;;;;;5033490;28;20535;-85
2022/11/27 13:10:24;;;;;;;4.80;2.15;;;6.90;99.90;;;;;;5036003;28;21942;-85
2022/11/27 13:13:09;;;;;;;;;;;6.90;99.90;;;;;;5028199;28;20029;-85
2022/11/27 13:16:14;;;;;;;4.07;1.40;;;7.00;99.90;;;;;;5036878;28;20224;-83
2022/11/27 13:19:26;;;;;;;4.25;1.70;;;7.00;99.90;;;;;;5020050;28;20057;-83
2022/11/27 13:21:53;;;;;;;3.55;1.60;;;7.00;99.90;;;;;;5032523;28;20069;-84